Time;durP1;ratioP1;P1;durP2;ratioP2;P2;SDS_P1;SDS_P2;PMS_P1;PMS_P2;Temp;Humidity;BMP_temperature;BMP_pressure;BME280_temperature;BME280_humidity;BME280_pressure;Samples;Min_cycle;Max_cycle;Signal;HPM_P1;HPM_P2
2022/03/19 00:02:18;;;;;;;80.15;12.60;;;12.60;77.20;;;;;;4989638;28;20023;-74
2022/03/19 00:04:44;;;;;;;71.60;11.77;;;12.60;77.10;;;;;;5004038;28;20384;-75
2022/03/19 00:07:09;;;;;;;183.75;18.42;;;12.60;77.10;;;;;;4993834;28;20033;-73
2022/03/19 00:09:35;;;;;;;96.05;12.90;;;12.60;77.30;;;;;;5005917;28;20018;-75
2022/03/19 00:12:01;;;;;;;66.47;10.63;;;12.60;77.30;;;;;;5005871;28;20033;-72
2022/03/19 00:14:26;;;;;;;66.82;10.93;;;12.60;77.30;;;;;;5007399;28;20033;-75
2022/03/19 00:16:53;;;;;;;63.60;9.77;;;12.60;77.20;;;;;;5006207;28;20065;-73
2022/03/19 00:19:18;;;;;;;74.50;10.60;;;12.60;77.20;;;;;;5008233;28;20026;-74
2022/03/19 00:21:44;;;;;;;79.82;11.98;;;12.60;77.20;;;;;;5022651;28;20049;-74
2022/03/19 00:24:10;;;;;;;58.33;9.48;;;12.60;77.30;;;;;;5008024;28;20034;-74
2022/03/19 00:26:35;;;;;;;70.05;10.70;;;12.60;77.20;;;;;;5006075;28;20041;-73
2022/03/19 00:29:01;;;;;;;72.18;10.20;;;12.60;77.20;;;;;;5007898;28;20033;-74
2022/03/19 00:31:26;;;;;;;68.88;10.38;;;12.60;77.20;;;;;;5007408;28;20025;-74
2022/03/19 00:33:52;;;;;;;62.08;9.90;;;12.60;77.20;;;;;;5006375;28;20029;-75
2022/03/19 00:36:17;;;;;;;59.53;10.23;;;12.60;77.30;;;;;;5006153;28;20022;-74
2022/03/19 00:38:43;;;;;;;59.92;9.75;;;12.60;77.20;;;;;;5006018;28;20805;-73
2022/03/19 00:41:08;;;;;;;76.35;10.13;;;12.60;77.20;;;;;;5005855;28;20057;-74
2022/03/19 00:43:34;;;;;;;50.67;9.95;;;12.60;77.20;;;;;;5007632;28;20034;-73
2022/03/19 00:45:59;;;;;;;146.23;15.38;;;12.60;77.20;;;;;;5006273;28;20042;-74
2022/03/19 00:48:25;;;;;;;109.40;13.73;;;12.60;77.30;;;;;;5005130;28;20029;-74
2022/03/19 00:50:50;;;;;;;107.90;12.80;;;12.60;77.30;;;;;;5022122;28;20033;-73
2022/03/19 00:53:16;;;;;;;86.28;11.07;;;12.60;77.30;;;;;;5006238;28;20104;-74
2022/03/19 00:55:42;;;;;;;86.85;11.13;;;12.60;77.40;;;;;;5006963;28;20030;-74
2022/03/19 00:58:07;;;;;;;82.05;11.70;;;12.60;77.40;;;;;;5006102;28;20026;-75
2022/03/19 01:00:33;;;;;;;81.38;11.93;;;12.60;77.30;;;;;;5020812;28;20030;-74
2022/03/19 01:02:58;;;;;;;74.88;10.85;;;12.60;77.40;;;;;;5006065;28;20033;-74
2022/03/19 01:05:25;;;;;;;68.45;10.98;;;12.60;77.40;;;;;;5005784;28;20036;-73
2022/03/19 01:07:53;;;;;;;76.28;9.95;;;12.60;77.40;;;;;;5005920;28;20487;-75
2022/03/19 01:10:24;;;;;;;122.32;13.85;;;12.50;77.40;;;;;;5006135;28;20041;-75
2022/03/19 01:12:52;;;;;;;85.43;11.23;;;12.60;77.50;;;;;;5005983;28;20030;-75
2022/03/19 01:15:18;;;;;;;65.35;10.23;;;12.60;77.50;;;;;;5005645;28;20257;-73
2022/03/19 01:17:44;;;;;;;82.45;11.32;;;12.60;77.70;;;;;;5006946;28;20029;-74
2022/03/19 01:20:10;;;;;;;86.30;11.38;;;12.60;77.50;;;;;;5006169;28;20034;-74
2022/03/19 01:22:40;;;;;;;141.70;15.02;;;12.60;77.50;;;;;;5006881;28;20022;-74
2022/03/19 01:25:07;;;;;;;125.28;13.88;;;12.60;77.50;;;;;;5006699;28;20089;-74
2022/03/19 01:27:33;;;;;;;98.72;11.18;;;12.60;77.40;;;;;;5005568;28;20033;-74
2022/03/19 01:30:00;;;;;;;80.53;11.50;;;12.60;77.40;;;;;;5005116;28;20084;-74
2022/03/19 01:32:26;;;;;;;74.20;10.85;;;12.60;77.40;;;;;;5005461;28;20052;-74
2022/03/19 01:34:53;;;;;;;73.63;10.68;;;12.60;77.50;;;;;;5006460;28;20491;-74
2022/03/19 01:37:19;;;;;;;70.07;10.40;;;12.60;78.00;;;;;;5021647;28;20777;-75
2022/03/19 01:39:44;;;;;;;85.53;10.32;;;12.60;77.50;;;;;;5021471;28;20125;-74
2022/03/19 01:42:10;;;;;;;78.13;10.45;;;12.60;77.50;;;;;;5005349;28;20021;-74
2022/03/19 01:44:36;;;;;;;78.13;9.80;;;12.60;77.50;;;;;;5006527;28;20030;-75
2022/03/19 01:47:10;;;;;;;61.08;10.02;;;12.60;77.50;;;;;;5004701;28;20045;-74
2022/03/19 01:49:36;;;;;;;56.63;8.50;;;12.50;77.60;;;;;;5005498;28;20025;-73
2022/03/19 01:52:03;;;;;;;73.05;11.02;;;12.60;77.50;;;;;;5004483;28;20033;-73
2022/03/19 01:54:34;;;;;;;75.85;10.60;;;12.60;77.60;;;;;;5005006;28;20104;-73
2022/03/19 01:57:01;;;;;;;78.60;11.38;;;12.60;77.70;;;;;;5004342;28;20030;-74
2022/03/19 01:59:31;;;;;;;71.72;10.13;;;12.60;78.10;;;;;;5004897;28;20079;-73
2022/03/19 02:01:58;;;;;;;158.68;14.95;;;12.60;77.60;;;;;;5006059;28;20021;-73
2022/03/19 02:04:23;;;;;;;228.35;19.45;;;12.60;77.70;;;;;;5006343;28;20056;-74
2022/03/19 02:06:50;;;;;;;103.80;13.45;;;12.50;77.70;;;;;;5004630;28;20041;-73
2022/03/19 02:09:15;;;;;;;81.53;12.13;;;12.60;77.70;;;;;;5004838;28;20176;-74
2022/03/19 02:11:41;;;;;;;70.22;10.48;;;12.60;77.90;;;;;;5004445;28;20112;-73
2022/03/19 02:14:06;;;;;;;84.38;11.63;;;12.60;77.70;;;;;;5004809;28;20030;-75
2022/03/19 02:16:32;;;;;;;72.40;9.77;;;12.60;77.70;;;;;;5004041;28;20033;-73
2022/03/19 02:19:01;;;;;;;69.88;9.85;;;12.60;77.80;;;;;;5021437;28;20030;-73
2022/03/19 02:21:37;;;;;;;114.82;12.82;;;12.60;77.70;;;;;;5003768;28;20036;-74
2022/03/19 02:26:47;;;;;;;95.00;11.30;;;12.60;78.30;;;;;;5005083;28;20033;-73
2022/03/19 02:29:12;;;;;;;72.55;10.88;;;12.60;77.70;;;;;;5005833;28;20029;-75
2022/03/19 02:31:44;;;;;;;68.97;10.00;;;12.60;77.80;;;;;;5004095;28;20033;-75
2022/03/19 02:34:09;;;;;;;57.33;8.95;;;12.60;77.80;;;;;;5005955;28;20022;-74
2022/03/19 02:36:41;;;;;;;70.28;9.60;;;12.60;77.80;;;;;;5005910;28;20030;-73
2022/03/19 02:39:12;;;;;;;95.53;11.55;;;12.50;77.80;;;;;;5004523;28;20029;-75
2022/03/19 02:41:42;;;;;;;80.53;10.60;;;12.60;77.90;;;;;;5002963;28;20030;-74
2022/03/19 02:44:09;;;;;;;73.18;9.35;;;12.60;77.90;;;;;;5006008;28;20041;-75
2022/03/19 02:46:43;;;;;;;54.78;8.75;;;12.60;77.90;;;;;;5004585;28;20403;-73
2022/03/19 02:49:09;;;;;;;57.03;9.48;;;12.60;77.80;;;;;;5004765;28;20044;-75
2022/03/19 02:51:36;;;;;;;53.33;7.68;;;12.60;77.80;;;;;;5003919;28;20022;-73
2022/03/19 02:54:03;;;;;;;62.70;7.93;;;12.50;77.70;;;;;;5020170;28;20060;-74
2022/03/19 02:56:30;;;;;;;46.25;8.63;;;12.50;77.70;;;;;;5004670;28;20091;-74
2022/03/19 02:58:55;;;;;;;62.58;9.57;;;12.50;77.80;;;;;;5005603;28;20026;-73
2022/03/19 03:01:21;;;;;;;50.25;8.15;;;12.50;77.70;;;;;;5004220;28;20026;-75
2022/03/19 03:03:48;;;;;;;50.08;8.73;;;12.60;77.70;;;;;;5004294;28;20030;-74
2022/03/19 03:06:13;;;;;;;57.45;8.20;;;12.60;77.80;;;;;;5020584;28;20084;-73
2022/03/19 03:08:39;;;;;;;304.40;24.08;;;12.50;77.70;;;;;;5020446;28;20443;-74
2022/03/19 03:11:05;;;;;;;247.32;21.35;;;12.60;78.20;;;;;;5005897;28;20038;-74
2022/03/19 03:13:31;;;;;;;89.88;10.55;;;12.50;78.10;;;;;;5009354;28;20037;-75
2022/03/19 03:15:57;;;;;;;72.22;10.18;;;12.50;77.90;;;;;;5004433;28;20083;-74
2022/03/19 03:18:22;;;;;;;73.10;9.48;;;12.50;77.90;;;;;;5007451;28;20068;-74
2022/03/19 03:20:48;;;;;;;61.10;8.25;;;12.60;77.90;;;;;;5023644;28;20057;-74
2022/03/19 03:23:14;;;;;;;56.20;8.35;;;12.40;77.80;;;;;;5007088;28;20113;-74
2022/03/19 03:25:39;;;;;;;59.25;8.63;;;12.50;77.80;;;;;;5008339;28;20088;-74
2022/03/19 03:28:05;;;;;;;56.85;8.30;;;12.50;77.90;;;;;;5007563;28;20080;-72
2022/03/19 03:30:31;;;;;;;80.97;10.60;;;12.50;78.00;;;;;;5008227;28;20089;-74
2022/03/19 03:32:56;;;;;;;57.53;8.88;;;12.50;78.00;;;;;;4995866;28;20030;-75
2022/03/19 03:35:25;;;;;;;67.85;9.25;;;12.50;77.90;;;;;;4988159;28;20030;-73
2022/03/19 03:37:51;;;;;;;102.75;13.13;;;12.50;77.90;;;;;;4988048;28;20053;-74
2022/03/19 03:40:18;;;;;;;172.13;17.25;;;12.50;78.50;;;;;;4987777;28;20030;-74
2022/03/19 03:42:44;;;;;;;88.13;12.40;;;12.50;78.20;;;;;;4994725;28;20952;-73
2022/03/19 03:45:10;;;;;;;68.95;9.52;;;12.50;78.50;;;;;;5007791;28;20030;-74
2022/03/19 03:47:36;;;;;;;113.82;12.10;;;12.50;78.00;;;;;;5003628;28;20084;-74
2022/03/19 03:50:02;;;;;;;72.40;10.88;;;12.50;78.10;;;;;;4998205;28;20531;-72
2022/03/19 03:52:30;;;;;;;71.38;9.93;;;12.50;78.10;;;;;;4987745;28;20041;-73
2022/03/19 03:54:56;;;;;;;222.85;18.45;;;12.50;78.00;;;;;;4987907;28;20491;-74
2022/03/19 03:57:21;;;;;;;97.75;11.90;;;12.50;78.40;;;;;;4987539;28;20936;-73
2022/03/19 03:59:49;;;;;;;123.13;11.43;;;12.50;78.30;;;;;;4987717;28;20125;-74
2022/03/19 04:02:15;;;;;;;87.38;10.55;;;12.50;78.40;;;;;;4987216;28;20034;-74
2022/03/19 04:04:41;;;;;;;77.05;10.65;;;12.50;78.60;;;;;;4987673;28;20030;-74
2022/03/19 04:07:06;;;;;;;78.20;9.60;;;12.50;78.00;;;;;;4988687;28;20057;-73
2022/03/19 04:09:32;;;;;;;60.13;8.73;;;12.50;78.10;;;;;;4987532;28;20023;-74
2022/03/19 04:11:57;;;;;;;62.75;8.93;;;12.50;78.20;;;;;;4986876;28;20061;-74
2022/03/19 04:14:23;;;;;;;45.05;8.07;;;12.50;78.10;;;;;;4988592;28;20042;-73
2022/03/19 04:16:48;;;;;;;48.22;7.97;;;12.50;78.10;;;;;;4986981;28;20034;-73
2022/03/19 04:19:14;;;;;;;51.53;8.10;;;12.50;78.10;;;;;;4987455;28;20086;-74
2022/03/19 04:21:40;;;;;;;46.40;8.35;;;12.50;78.10;;;;;;4986820;28;20872;-74
2022/03/19 04:24:05;;;;;;;48.67;7.88;;;12.50;78.10;;;;;;5004084;28;20034;-74
2022/03/19 04:26:31;;;;;;;49.55;7.68;;;12.50;78.10;;;;;;5023007;28;20116;-74
2022/03/19 04:28:56;;;;;;;44.80;7.53;;;12.50;78.20;;;;;;5006498;28;20037;-75
2022/03/19 04:31:22;;;;;;;160.32;16.10;;;12.50;78.20;;;;;;5006049;28;20034;-74
2022/03/19 04:33:48;;;;;;;106.38;11.30;;;12.50;78.40;;;;;;5007529;28;20060;-73
2022/03/19 04:36:32;;;;;;;85.80;9.85;;;12.50;78.70;;;;;;5007903;28;20036;-74
2022/03/19 04:39:03;;;;;;;83.03;9.13;;;12.50;78.70;;;;;;5006235;28;20053;-73
2022/03/19 04:41:29;;;;;;;50.17;8.18;;;12.50;78.70;;;;;;5006563;28;20091;-74
2022/03/19 04:43:55;;;;;;;52.67;8.00;;;12.50;78.60;;;;;;5007578;28;20487;-75
2022/03/19 04:46:21;;;;;;;45.50;8.13;;;12.40;78.50;;;;;;5005895;28;20064;-74
2022/03/19 04:48:46;;;;;;;42.75;7.03;;;12.50;78.50;;;;;;5006257;28;20037;-74
2022/03/19 04:51:18;;;;;;;42.28;7.38;;;12.50;78.50;;;;;;5005516;28;20230;-74
2022/03/19 04:53:50;;;;;;;49.15;7.38;;;12.50;78.50;;;;;;5005378;28;20123;-73
2022/03/19 04:56:18;;;;;;;42.05;6.63;;;12.50;78.50;;;;;;5007200;28;20152;-75
2022/03/19 04:58:43;;;;;;;38.33;7.30;;;12.50;78.40;;;;;;5006720;28;20030;-73
2022/03/19 05:01:09;;;;;;;43.25;7.25;;;12.50;78.40;;;;;;5006690;28;20040;-74
2022/03/19 05:03:34;;;;;;;40.97;7.05;;;12.50;78.50;;;;;;5005678;28;20401;-75
2022/03/19 05:06:00;;;;;;;40.10;7.22;;;12.40;78.30;;;;;;5005133;28;20095;-74
2022/03/19 05:08:25;;;;;;;37.10;7.53;;;12.50;78.40;;;;;;5006961;28;20041;-74
2022/03/19 05:13:35;;;;;;;32.67;6.38;;;12.50;78.40;;;;;;5006321;28;20084;-73
2022/03/19 05:16:01;;;;;;;38.80;6.70;;;12.50;78.30;;;;;;5005299;28;20026;-73
2022/03/19 05:18:26;;;;;;;33.03;6.25;;;12.50;78.40;;;;;;5007787;28;20036;-74
2022/03/19 05:20:53;;;;;;;33.53;6.53;;;12.50;78.40;;;;;;5004887;28;20121;-74
2022/03/19 05:23:18;;;;;;;35.25;6.15;;;12.50;78.30;;;;;;5006421;28;20109;-74
2022/03/19 05:25:44;;;;;;;31.10;5.95;;;12.50;78.30;;;;;;5005151;28;20125;-74
2022/03/19 05:28:10;;;;;;;28.25;5.88;;;12.50;78.40;;;;;;5003490;28;20525;-75
2022/03/19 05:30:37;;;;;;;35.22;6.43;;;12.50;78.30;;;;;;5005601;28;20112;-74
2022/03/19 05:33:04;;;;;;;26.85;5.43;;;12.40;78.30;;;;;;5006092;28;20027;-72
2022/03/19 05:35:30;;;;;;;33.33;7.05;;;12.40;78.20;;;;;;5003690;28;20461;-73
2022/03/19 05:37:57;;;;;;;28.17;6.28;;;12.50;78.20;;;;;;5005623;28;20037;-75
2022/03/19 05:40:24;;;;;;;27.02;6.30;;;12.50;78.30;;;;;;5004402;28;20034;-73
2022/03/19 05:42:50;;;;;;;27.70;5.88;;;12.40;78.20;;;;;;5006943;28;20044;-74
2022/03/19 05:45:15;;;;;;;30.98;5.85;;;12.40;78.20;;;;;;4984575;28;20022;-74
2022/03/19 05:47:42;;;;;;;22.13;4.88;;;12.40;78.20;;;;;;4991935;28;20112;-73
2022/03/19 05:50:08;;;;;;;30.15;7.22;;;12.50;78.20;;;;;;5000095;28;20026;-74
2022/03/19 05:52:33;;;;;;;26.63;6.03;;;12.50;78.20;;;;;;4997011;28;20029;-74
2022/03/19 05:54:59;;;;;;;23.33;5.90;;;12.40;78.10;;;;;;4986819;28;20022;-74
2022/03/19 05:57:24;;;;;;;20.92;4.97;;;12.50;78.10;;;;;;4985697;28;20837;-73
2022/03/19 05:59:50;;;;;;;21.60;4.72;;;12.50;78.00;;;;;;4992852;28;20044;-73
2022/03/19 06:02:15;;;;;;;33.92;5.93;;;12.50;78.00;;;;;;5006291;28;20026;-75
2022/03/19 06:04:41;;;;;;;23.52;4.75;;;12.50;77.90;;;;;;5004823;28;20112;-74
2022/03/19 06:07:07;;;;;;;28.52;6.30;;;12.50;77.80;;;;;;5006311;28;20025;-75
2022/03/19 06:09:32;;;;;;;19.67;4.85;;;12.50;77.70;;;;;;5005993;28;20756;-74
2022/03/19 06:11:58;;;;;;;21.75;4.53;;;12.50;77.60;;;;;;5004512;28;20033;-74
2022/03/19 06:14:24;;;;;;;23.23;5.03;;;12.50;77.50;;;;;;5006105;28;20576;-75
2022/03/19 06:16:49;;;;;;;19.63;4.68;;;12.60;77.60;;;;;;5005952;28;20438;-74
2022/03/19 06:19:16;;;;;;;23.70;4.82;;;12.60;77.50;;;;;;5005046;28;20026;-74
2022/03/19 06:21:42;;;;;;;22.58;5.10;;;12.60;77.40;;;;;;5005872;28;20034;-75
2022/03/19 06:24:09;;;;;;;23.80;5.18;;;12.60;77.30;;;;;;5000230;28;20134;-74
2022/03/19 06:26:35;;;;;;;23.08;4.85;;;12.60;77.20;;;;;;5009241;28;20059;-74
2022/03/19 06:29:02;;;;;;;24.30;5.20;;;12.60;77.00;;;;;;5024043;28;20029;-74
2022/03/19 06:31:27;;;;;;;22.02;5.82;;;12.70;76.90;;;;;;5013646;28;20566;-74
2022/03/19 06:33:53;;;;;;;20.92;4.45;;;12.70;76.90;;;;;;5005756;28;20033;-74
2022/03/19 06:39:04;;;;;;;19.05;5.22;;;12.70;76.70;;;;;;5007959;28;20040;-74
2022/03/19 06:41:29;;;;;;;24.60;5.32;;;12.80;76.60;;;;;;5024929;28;20037;-74
2022/03/19 06:43:55;;;;;;;20.40;5.28;;;12.80;76.40;;;;;;5022592;28;20087;-74
2022/03/19 06:46:21;;;;;;;15.55;4.38;;;12.80;76.40;;;;;;5028527;28;20354;-75
2022/03/19 06:48:47;;;;;;;19.90;4.38;;;12.90;76.40;;;;;;5020334;28;20558;-75
2022/03/19 06:51:13;;;;;;;16.13;4.30;;;12.90;76.30;;;;;;5017412;28;20040;-73
2022/03/19 06:53:39;;;;;;;17.88;4.38;;;12.90;76.30;;;;;;5028616;28;20029;-74
2022/03/19 06:56:05;;;;;;;14.48;4.47;;;12.90;76.20;;;;;;5026179;28;20026;-73
2022/03/19 06:58:32;;;;;;;17.48;5.30;;;12.90;75.90;;;;;;5013338;28;20032;-73
2022/03/19 07:00:57;;;;;;;18.02;4.90;;;13.00;75.90;;;;;;5016941;28;20563;-74
2022/03/19 07:03:23;;;;;;;19.10;4.45;;;13.00;75.80;;;;;;5023832;28;20056;-75
2022/03/19 07:05:49;;;;;;;17.23;4.82;;;13.00;75.70;;;;;;5008996;28;20095;-73
2022/03/19 07:08:15;;;;;;;19.17;4.05;;;13.00;75.60;;;;;;5009099;28;20026;-74
2022/03/19 07:10:40;;;;;;;18.40;4.70;;;13.00;75.50;;;;;;5008215;28;20030;-74
2022/03/19 07:13:06;;;;;;;18.92;4.78;;;13.10;75.50;;;;;;5010793;28;20054;-74
2022/03/19 07:15:32;;;;;;;17.13;4.40;;;13.10;75.40;;;;;;5013847;28;20129;-74
2022/03/19 07:18:00;;;;;;;18.92;4.00;;;13.10;75.40;;;;;;5001764;28;20034;-74
2022/03/19 07:20:27;;;;;;;15.80;4.43;;;13.10;75.20;;;;;;5009371;28;20053;-75
2022/03/19 07:23:04;;;;;;;12.63;3.60;;;13.20;75.20;;;;;;5001581;28;20113;-74
2022/03/19 07:25:32;;;;;;;16.00;3.80;;;13.20;75.20;;;;;;5004626;28;20157;-74
2022/03/19 07:28:01;;;;;;;17.13;4.10;;;13.20;75.00;;;;;;5001129;28;20068;-74
2022/03/19 07:30:27;;;;;;;17.10;3.72;;;13.20;74.90;;;;;;5001388;28;20451;-73
2022/03/19 07:32:53;;;;;;;16.55;4.07;;;13.20;74.80;;;;;;4999431;28;20755;-73
2022/03/19 07:35:19;;;;;;;17.55;4.97;;;13.30;74.90;;;;;;4992957;28;20026;-73
2022/03/19 07:37:45;;;;;;;13.65;3.47;;;13.30;74.70;;;;;;4997841;28;20133;-74
2022/03/19 07:40:12;;;;;;;12.55;3.67;;;13.30;74.60;;;;;;4990131;28;20419;-74
2022/03/19 07:42:39;;;;;;;13.13;3.38;;;13.30;74.50;;;;;;5013737;28;20113;-74
2022/03/19 07:45:06;;;;;;;13.13;3.45;;;13.30;74.50;;;;;;5022370;28;20037;-74
2022/03/19 07:47:33;;;;;;;16.27;3.47;;;13.30;74.40;;;;;;5009548;28;20036;-77
2022/03/19 07:49:59;;;;;;;13.07;3.55;;;13.40;74.50;;;;;;5011056;28;20038;-74
2022/03/19 07:52:25;;;;;;;14.77;3.33;;;13.40;74.40;;;;;;5007180;28;20076;-74
2022/03/19 07:54:54;;;;;;;16.80;3.63;;;13.40;74.30;;;;;;5007069;28;20021;-73
2022/03/19 07:57:21;;;;;;;17.45;3.65;;;13.40;74.30;;;;;;5007441;28;20027;-74
2022/03/19 07:59:47;;;;;;;20.00;3.75;;;13.50;74.20;;;;;;5006511;28;20487;-75
2022/03/19 08:02:13;;;;;;;14.40;3.83;;;13.50;74.10;;;;;;5008302;28;20124;-75
2022/03/19 08:04:38;;;;;;;19.83;4.13;;;13.50;73.90;;;;;;5007379;28;20034;-74
2022/03/19 08:07:04;;;;;;;16.75;3.67;;;13.50;73.90;;;;;;5002166;28;20080;-74
2022/03/19 08:09:30;;;;;;;17.75;4.45;;;13.50;73.80;;;;;;4998002;28;20045;-75
2022/03/19 08:11:56;;;;;;;19.60;4.50;;;13.50;73.80;;;;;;4997354;28;20026;-74
2022/03/19 08:14:21;;;;;;;14.40;3.40;;;13.50;73.70;;;;;;5000952;28;20080;-75
2022/03/19 08:16:47;;;;;;;16.00;3.20;;;13.60;73.70;;;;;;4994300;28;20502;-74
2022/03/19 08:19:13;;;;;;;17.10;4.30;;;13.60;73.70;;;;;;5026884;28;20028;-75
2022/03/19 08:21:40;;;;;;;15.02;3.75;;;13.60;73.80;;;;;;5002269;28;20577;-75
2022/03/19 08:24:06;;;;;;;17.83;4.28;;;13.60;73.70;;;;;;5012385;28;20025;-74
2022/03/19 08:26:32;;;;;;;15.82;4.18;;;13.70;73.80;;;;;;5010081;28;20488;-73
2022/03/19 08:28:58;;;;;;;15.82;3.78;;;13.60;73.70;;;;;;5017027;28;20041;-73
2022/03/19 08:31:24;;;;;;;13.35;3.63;;;13.60;73.60;;;;;;4995717;28;20030;-74
2022/03/19 08:33:49;;;;;;;13.38;4.10;;;13.70;73.70;;;;;;5009446;28;20384;-74
2022/03/19 08:36:15;;;;;;;14.50;3.60;;;13.70;73.60;;;;;;5009327;28;20030;-74
2022/03/19 08:41:24;;;;;;;11.88;3.60;;;13.70;73.70;;;;;;5005495;28;20824;-73
2022/03/19 08:43:50;;;;;;;13.15;3.88;;;13.70;73.70;;;;;;4998762;28;20034;-74
2022/03/19 08:46:16;;;;;;;14.00;3.53;;;13.70;73.70;;;;;;5001820;28;20040;-73
2022/03/19 08:48:41;;;;;;;12.80;3.80;;;13.70;73.70;;;;;;5001138;28;20025;-74
2022/03/19 08:53:51;;;;;;;16.92;4.25;;;13.80;73.80;;;;;;5007223;28;20545;-74
2022/03/19 08:56:17;;;;;;;16.20;3.92;;;13.80;73.70;;;;;;5007671;28;20018;-73
2022/03/19 08:58:42;;;;;;;12.55;3.63;;;13.80;73.70;;;;;;5009339;28;20053;-73
2022/03/19 09:01:08;;;;;;;15.18;3.38;;;13.80;73.70;;;;;;5007190;28;20099;-73
2022/03/19 09:03:34;;;;;;;12.45;3.30;;;13.80;73.70;;;;;;5007038;28;20022;-75
2022/03/19 09:06:00;;;;;;;12.55;3.25;;;13.80;73.70;;;;;;4990408;28;20562;-74
2022/03/19 09:08:28;;;;;;;13.43;3.08;;;13.90;73.60;;;;;;4986500;28;20027;-74
2022/03/19 09:10:57;;;;;;;11.35;3.20;;;13.90;73.60;;;;;;4985336;28;20053;-74
2022/03/19 09:13:22;;;;;;;7.85;2.70;;;13.90;73.60;;;;;;4987542;28;20066;-75
2022/03/19 09:15:48;;;;;;;12.65;3.28;;;13.90;73.50;;;;;;4994327;28;20056;-74
2022/03/19 09:18:13;;;;;;;12.57;3.70;;;13.90;73.50;;;;;;4995486;28;20073;-74
2022/03/19 09:20:38;;;;;;;11.48;3.05;;;13.90;73.50;;;;;;4988088;28;20030;-73
2022/03/19 09:23:04;;;;;;;10.65;3.15;;;13.90;73.40;;;;;;4993117;28;20136;-74
2022/03/19 09:25:29;;;;;;;11.15;3.25;;;13.90;73.40;;;;;;4995715;28;20030;-73
2022/03/19 09:27:55;;;;;;;8.40;2.75;;;14.00;73.40;;;;;;4988153;28;20026;-73
2022/03/19 09:30:21;;;;;;;10.05;2.85;;;14.00;73.40;;;;;;4993801;28;20764;-73
2022/03/19 09:32:46;;;;;;;10.63;3.10;;;14.00;73.40;;;;;;5007723;28;20029;-76
2022/03/19 09:35:12;;;;;;;7.13;2.60;;;14.00;73.30;;;;;;5007336;28;20103;-77
2022/03/19 09:37:38;;;;;;;9.55;2.97;;;14.00;73.30;;;;;;5008066;28;20030;-74
2022/03/19 09:40:04;;;;;;;9.68;2.80;;;14.00;73.30;;;;;;5006366;28;20035;-75
2022/03/19 09:42:31;;;;;;;7.50;2.55;;;14.00;73.20;;;;;;5007889;28;20403;-74
2022/03/19 09:44:57;;;;;;;9.98;2.70;;;14.00;73.20;;;;;;5006415;28;20854;-76
2022/03/19 09:47:25;;;;;;;10.52;3.08;;;14.00;73.20;;;;;;5006936;28;20048;-75
2022/03/19 09:49:51;;;;;;;10.25;3.00;;;14.00;73.20;;;;;;5005943;28;20026;-74
2022/03/19 09:52:20;;;;;;;8.95;2.80;;;14.00;73.20;;;;;;5006308;28;20033;-74
2022/03/19 09:54:46;;;;;;;12.35;3.20;;;14.10;73.20;;;;;;5007725;28;20026;-74
2022/03/19 09:57:11;;;;;;;8.48;2.78;;;14.10;73.20;;;;;;5006697;28;20037;-74
2022/03/19 09:59:37;;;;;;;6.63;2.28;;;14.10;73.10;;;;;;5004147;28;20030;-74
2022/03/19 10:02:07;;;;;;;8.00;3.17;;;14.10;73.10;;;;;;4995072;28;20093;-74
2022/03/19 10:04:35;;;;;;;9.27;2.88;;;14.10;73.10;;;;;;5019957;28;20093;-74
2022/03/19 10:09:46;;;;;;;9.43;2.80;;;14.10;73.10;;;;;;5005167;28;20040;-74
2022/03/19 10:12:21;;;;;;;9.77;3.05;;;14.10;73.10;;;;;;5000926;28;20693;-76
2022/03/19 10:14:51;;;;;;;9.50;2.85;;;14.10;73.10;;;;;;5006090;28;20025;-74
2022/03/19 10:17:33;;;;;;;12.43;2.80;;;14.20;73.10;;;;;;5005602;28;20581;-76
2022/03/19 10:20:12;;;;;;;13.25;2.67;;;14.20;72.70;;;;;;5005163;28;20026;-74
2022/03/19 10:22:40;;;;;;;30.02;4.15;;;14.20;72.60;;;;;;5007409;28;20101;-74
2022/03/19 10:25:08;;;;;;;22.00;3.78;;;14.20;72.50;;;;;;5009597;28;20121;-77
2022/03/19 10:27:36;;;;;;;23.98;3.60;;;14.20;72.30;;;;;;5009216;28;20030;-76
2022/03/19 10:30:05;;;;;;;19.60;3.70;;;14.20;72.40;;;;;;5010217;28;20052;-76
2022/03/19 10:32:31;;;;;;;19.95;3.88;;;14.20;72.40;;;;;;5009166;28;20148;-80
2022/03/19 10:34:57;;;;;;;18.92;3.95;;;14.20;72.60;;;;;;5011252;28;20045;-76
2022/03/19 10:37:39;;;;;;;15.02;3.13;;;14.20;72.60;;;;;;5007080;28;20030;-75
2022/03/19 10:40:07;;;;;;;17.40;3.33;;;14.20;72.70;;;;;;5007957;28;20025;-74
2022/03/19 10:42:41;;;;;;;17.70;3.10;;;14.20;72.60;;;;;;5007221;28;20033;-74
2022/03/19 10:45:09;;;;;;;11.43;2.88;;;14.20;72.70;;;;;;5007937;28;20033;-74
2022/03/19 10:47:42;;;;;;;16.02;3.05;;;14.20;72.80;;;;;;5008993;28;20549;-75
2022/03/19 10:50:09;;;;;;;12.15;2.83;;;14.20;72.80;;;;;;5007254;28;20026;-74
2022/03/19 10:52:38;;;;;;;13.40;3.08;;;14.20;72.80;;;;;;5007974;28;20431;-73
2022/03/19 10:55:04;;;;;;;10.23;2.67;;;14.30;72.90;;;;;;5008137;28;20513;-74
2022/03/19 10:57:31;;;;;;;11.60;2.95;;;14.30;72.80;;;;;;5008284;28;20038;-74
2022/03/19 10:59:56;;;;;;;10.50;2.85;;;14.30;72.80;;;;;;5008873;28;20026;-74
2022/03/19 11:02:28;;;;;;;12.73;2.90;;;14.30;72.80;;;;;;5008798;28;20040;-74
2022/03/19 11:04:57;;;;;;;11.98;3.03;;;14.30;72.80;;;;;;5006454;28;20030;-73
2022/03/19 11:07:23;;;;;;;11.55;3.10;;;14.30;72.80;;;;;;5008307;28;20034;-73
2022/03/19 11:09:51;;;;;;;6.78;2.30;;;14.30;72.70;;;;;;5008523;28;20030;-75
2022/03/19 11:12:20;;;;;;;12.77;2.70;;;14.30;72.80;;;;;;5008682;28;20037;-74
2022/03/19 11:14:48;;;;;;;12.93;2.78;;;14.30;72.70;;;;;;5007873;28;20034;-74
2022/03/19 11:17:25;;;;;;;8.43;2.13;;;14.30;72.70;;;;;;5007625;28;20030;-75
2022/03/19 11:19:55;;;;;;;23.75;4.15;;;14.30;72.60;;;;;;5007518;28;20025;-73
2022/03/19 11:22:21;;;;;;;13.98;2.80;;;14.30;71.70;;;;;;5008882;28;20022;-74
2022/03/19 11:25:27;;;;;;;13.57;2.70;;;14.30;71.20;;;;;;5008864;28;20487;-76
2022/03/19 11:27:57;;;;;;;14.20;3.13;;;14.40;71.10;;;;;;5007820;28;20034;-74
2022/03/19 11:30:25;;;;;;;11.32;2.45;;;14.30;71.20;;;;;;5007352;28;20070;-73
2022/03/19 11:33:02;;;;;;;12.32;2.92;;;14.40;71.30;;;;;;5026403;28;20025;-74
2022/03/19 11:35:28;;;;;;;12.80;2.63;;;14.40;71.40;;;;;;5028197;28;20049;-75
2022/03/19 11:38:01;;;;;;;8.77;2.88;;;14.40;71.50;;;;;;5011126;28;20056;-75
2022/03/19 11:40:29;;;;;;;13.05;2.70;;;14.40;71.60;;;;;;5040386;22;20034;-76
2022/03/19 11:43:44;;;;;;;;;;;;;;;;;;;;;
2022/03/19 11:47:06;;;;;;;8.57;2.05;;;15.20;72.10;;;;;;5052383;28;20028;-76
2022/03/19 11:50:02;;;;;;;9.45;2.35;;;14.40;71.80;;;;;;5052240;28;20043;-75
2022/03/19 11:52:56;;;;;;;;;;;;;;;;;;;;;
2022/03/19 11:55:45;;;;;;;8.55;2.20;;;14.40;72.00;;;;;;5051421;28;20036;-74
2022/03/19 11:58:24;;;;;;;11.33;2.40;;;14.30;71.90;;;;;;5050398;28;20036;-75
2022/03/19 12:01:01;;;;;;;12.15;2.40;;;14.40;72.00;;;;;;5051507;28;20270;-76
2022/03/19 12:03:29;;;;;;;7.05;2.22;;;14.40;72.10;;;;;;5050110;28;20021;-75
2022/03/19 12:05:58;;;;;;;6.78;1.95;;;14.30;72.00;;;;;;5051691;28;20098;-80
2022/03/19 12:08:49;;;;;;;7.72;2.30;;;14.30;72.00;;;;;;5050285;28;20029;-75
2022/03/19 12:11:23;;;;;;;10.70;2.53;;;14.20;71.90;;;;;;5050547;28;20025;-74
2022/03/19 12:14:01;;;;;;;7.20;2.05;;;14.40;72.00;;;;;;5050454;28;20164;-75
2022/03/19 12:16:43;;;;;;;9.25;2.00;;;14.40;72.10;;;;;;5049951;28;20029;-74
2022/03/19 12:19:10;;;;;;;7.78;1.77;;;14.30;72.00;;;;;;5049280;28;20052;-75
2022/03/19 12:21:43;;;;;;;5.85;2.17;;;14.30;72.20;;;;;;5049984;28;20574;-74
2022/03/19 12:24:32;;;;;;;7.03;2.10;;;14.30;72.20;;;;;;5049038;28;20028;-73
2022/03/19 12:26:58;;;;;;;9.20;2.15;;;14.30;72.20;;;;;;5049331;28;20600;-75
2022/03/19 12:29:30;;;;;;;8.38;2.05;;;14.30;72.20;;;;;;5040786;28;20032;-75
2022/03/19 12:31:55;;;;;;;8.27;2.15;;;14.40;72.30;;;;;;5048176;28;20024;-75
2022/03/19 12:34:23;;;;;;;8.95;1.80;;;14.30;72.10;;;;;;5036393;28;20032;-74
2022/03/19 12:36:50;;;;;;;10.05;2.00;;;14.30;72.10;;;;;;5028240;28;20030;-73
2022/03/19 12:39:17;;;;;;;17.45;2.30;;;14.30;71.70;;;;;;5047783;28;20110;-73
2022/03/19 12:41:44;;;;;;;13.90;2.28;;;14.30;71.80;;;;;;5046604;28;20029;-74
2022/03/19 12:44:22;;;;;;;13.07;2.40;;;14.30;71.50;;;;;;5038930;28;20028;-74
2022/03/19 12:46:54;;;;;;;12.73;2.58;;;14.40;71.50;;;;;;5039435;28;20043;-75
2022/03/19 12:49:20;;;;;;;;;;;14.30;71.60;;;;;;5048146;28;20033;-75
2022/03/19 12:51:47;;;;;;;9.60;1.88;;;14.30;71.60;;;;;;5038949;28;19970;-74
2022/03/19 12:54:17;;;;;;;11.82;2.10;;;14.30;71.70;;;;;;5035278;28;20462;-76
2022/03/19 12:56:42;;;;;;;10.18;2.28;;;14.40;71.80;;;;;;5047519;28;20075;-76
2022/03/19 12:59:22;;;;;;;9.32;2.25;;;14.30;71.90;;;;;;5047432;28;20021;-74